sensor_id;sensor_type;location;lat;lon;timestamp;temperature;humidity
8402;DHT22;4238;48.404;9.498;2023-09-30T04:01:14;12.30;99.90
8402;DHT22;4238;48.404;9.498;2023-09-30T04:03:42;12.20;99.90
8402;DHT22;4238;48.404;9.498;2023-09-30T04:06:09;12.20;99.90
8402;DHT22;4238;48.404;9.498;2023-09-30T04:08:41;12.30;99.90
8402;DHT22;4238;48.404;9.498;2023-09-30T04:11:09;12.30;99.90
8402;DHT22;4238;48.404;9.498;2023-09-30T04:13:42;12.30;99.90
8402;DHT22;4238;48.404;9.498;2023-09-30T04:16:09;12.30;99.90
8402;DHT22;4238;48.404;9.498;2023-09-30T04:18:37;12.40;99.90
8402;DHT22;4238;48.404;9.498;2023-09-30T04:21:04;12.50;99.90
8402;DHT22;4238;48.404;9.498;2023-09-30T04:23:32;12.40;99.90
8402;DHT22;4238;48.404;9.498;2023-09-30T04:26:02;12.50;99.90
8402;DHT22;4238;48.404;9.498;2023-09-30T04:28:29;12.50;99.90
8402;DHT22;4238;48.404;9.498;2023-09-30T04:30:56;12.50;99.90
8402;DHT22;4238;48.404;9.498;2023-09-30T04:33:23;12.60;99.90
8402;DHT22;4238;48.404;9.498;2023-09-30T04:35:52;12.60;99.90
8402;DHT22;4238;48.404;9.498;2023-09-30T04:38:19;12.60;99.90
8402;DHT22;4238;48.404;9.498;2023-09-30T04:40:45;12.60;99.90
8402;DHT22;4238;48.404;9.498;2023-09-30T04:43:17;12.50;99.90
8402;DHT22;4238;48.404;9.498;2023-09-30T04:45:43;12.50;99.90
8402;DHT22;4238;48.404;9.498;2023-09-30T04:48:10;12.50;99.90
8402;DHT22;4238;48.404;9.498;2023-09-30T04:50:38;12.50;99.90
8402;DHT22;4238;48.404;9.498;2023-09-30T04:53:07;12.40;99.90
8402;DHT22;4238;48.404;9.498;2023-09-30T04:55:34;12.40;99.90
8402;DHT22;4238;48.404;9.498;2023-09-30T04:58:03;12.40;99.90
8402;DHT22;4238;48.404;9.498;2023-09-30T05:00:30;12.40;99.90
8402;DHT22;4238;48.404;9.498;2023-09-30T05:02:57;12.40;99.90
8402;DHT22;4238;48.404;9.498;2023-09-30T05:05:25;12.30;99.90
8402;DHT22;4238;48.404;9.498;2023-09-30T05:07:51;12.20;99.90
8402;DHT22;4238;48.404;9.498;2023-09-30T05:10:20;12.20;99.90
8402;DHT22;4238;48.404;9.498;2023-09-30T05:12:47;12.20;99.90
8402;DHT22;4238;48.404;9.498;2023-09-30T05:15:14;12.20;99.90
8402;DHT22;4238;48.404;9.498;2023-09-30T05:17:41;12.30;99.90
8402;DHT22;4238;48.404;9.498;2023-09-30T05:20:10;12.30;99.90
8402;DHT22;4238;48.404;9.498;2023-09-30T05:22:38;12.20;99.90
8402;DHT22;4238;48.404;9.498;2023-09-30T05:25:06;12.20;99.90
8402;DHT22;4238;48.404;9.498;2023-09-30T05:27:35;12.20;99.90
8402;DHT22;4238;48.404;9.498;2023-09-30T05:30:02;12.30;99.90
8402;DHT22;4238;48.404;9.498;2023-09-30T05:32:29;12.20;99.90
8402;DHT22;4238;48.404;9.498;2023-09-30T05:34:56;12.20;99.90
8402;DHT22;4238;48.404;9.498;2023-09-30T05:37:24;12.10;99.90
8402;DHT22;4238;48.404;9.498;2023-09-30T05:39:51;12.20;99.90
8402;DHT22;4238;48.404;9.498;2023-09-30T05:42:18;12.20;99.90
8402;DHT22;4238;48.404;9.498;2023-09-30T05:44:46;12.20;99.90
8402;DHT22;4238;48.404;9.498;2023-09-30T05:47:14;12.10;99.90
8402;DHT22;4238;48.404;9.498;2023-09-30T05:49:41;12.10;99.90
8402;DHT22;4238;48.404;9.498;2023-09-30T05:52:08;12.10;99.90
8402;DHT22;4238;48.404;9.498;2023-09-30T05:54:34;12.10;99.90
8402;DHT22;4238;48.404;9.498;2023-09-30T05:57:02;12.30;99.90
8402;DHT22;4238;48.404;9.498;2023-09-30T05:59:29;12.40;99.90
8402;DHT22;4238;48.404;9.498;2023-09-30T06:01:57;12.40;99.90
8402;DHT22;4238;48.404;9.498;2023-09-30T06:04:24;12.40;99.90
8402;DHT22;4238;48.404;9.498;2023-09-30T06:06:51;12.30;99.90
8402;DHT22;4238;48.404;9.498;2023-09-30T06:09:18;12.30;99.90
8402;DHT22;4238;48.404;9.498;2023-09-30T06:11:50;12.20;99.90
8402;DHT22;4238;48.404;9.498;2023-09-30T06:14:17;12.30;99.90
8402;DHT22;4238;48.404;9.498;2023-09-30T06:16:44;12.50;99.90
8402;DHT22;4238;48.404;9.498;2023-09-30T06:19:12;12.60;99.90
8402;DHT22;4238;48.404;9.498;2023-09-30T06:21:39;12.70;99.90
8402;DHT22;4238;48.404;9.498;2023-09-30T06:24:06;12.80;99.90
8402;DHT22;4238;48.404;9.498;2023-09-30T06:26:32;12.80;99.90
8402;DHT22;4238;48.404;9.498;2023-09-30T06:28:59;12.90;99.90
8402;DHT22;4238;48.404;9.498;2023-09-30T06:31:26;12.90;99.90
8402;DHT22;4238;48.404;9.498;2023-09-30T06:33:54;13.00;99.90
8402;DHT22;4238;48.404;9.498;2023-09-30T06:36:25;13.10;99.90
8402;DHT22;4238;48.404;9.498;2023-09-30T06:38:52;13.10;99.90
8402;DHT22;4238;48.404;9.498;2023-09-30T06:41:19;13.20;99.90
8402;DHT22;4238;48.404;9.498;2023-09-30T06:43:45;13.30;99.90
8402;DHT22;4238;48.404;9.498;2023-09-30T06:46:13;13.30;99.90
8402;DHT22;4238;48.404;9.498;2023-09-30T06:48:39;13.30;99.90
8402;DHT22;4238;48.404;9.498;2023-09-30T06:51:07;13.40;99.90
8402;DHT22;4238;48.404;9.498;2023-09-30T06:53:35;13.50;99.90
8402;DHT22;4238;48.404;9.498;2023-09-30T06:56:04;13.60;99.90
8402;DHT22;4238;48.404;9.498;2023-09-30T06:58:31;13.60;99.90
8402;DHT22;4238;48.404;9.498;2023-09-30T07:00:58;13.60;99.90
8402;DHT22;4238;48.404;9.498;2023-09-30T07:03:25;13.60;99.90
8402;DHT22;4238;48.404;9.498;2023-09-30T07:05:52;13.70;99.90
8402;DHT22;4238;48.404;9.498;2023-09-30T07:08:20;13.70;99.90
8402;DHT22;4238;48.404;9.498;2023-09-30T07:10:48;13.80;99.90
8402;DHT22;4238;48.404;9.498;2023-09-30T07:13:16;13.70;99.90
8402;DHT22;4238;48.404;9.498;2023-09-30T07:15:43;13.70;99.90
8402;DHT22;4238;48.404;9.498;2023-09-30T07:18:10;13.90;99.90
8402;DHT22;4238;48.404;9.498;2023-09-30T07:20:38;14.00;99.90
8402;DHT22;4238;48.404;9.498;2023-09-30T07:23:05;14.10;99.90
8402;DHT22;4238;48.404;9.498;2023-09-30T07:25:32;14.10;99.90
8402;DHT22;4238;48.404;9.498;2023-09-30T07:28:01;14.10;99.90
8402;DHT22;4238;48.404;9.498;2023-09-30T07:30:28;14.20;99.90
8402;DHT22;4238;48.404;9.498;2023-09-30T07:32:55;14.30;99.90
8402;DHT22;4238;48.404;9.498;2023-09-30T07:35:23;14.30;99.90
8402;DHT22;4238;48.404;9.498;2023-09-30T07:37:50;14.30;99.90
8402;DHT22;4238;48.404;9.498;2023-09-30T07:40:18;14.20;99.90
8402;DHT22;4238;48.404;9.498;2023-09-30T07:42:46;14.40;99.90
8402;DHT22;4238;48.404;9.498;2023-09-30T07:45:14;14.40;99.90
8402;DHT22;4238;48.404;9.498;2023-09-30T07:47:43;14.50;99.90
8402;DHT22;4238;48.404;9.498;2023-09-30T07:50:12;14.60;99.90
8402;DHT22;4238;48.404;9.498;2023-09-30T07:52:39;14.70;99.90
8402;DHT22;4238;48.404;9.498;2023-09-30T07:55:08;14.90;99.90
8402;DHT22;4238;48.404;9.498;2023-09-30T07:57:35;15.00;99.90
8402;DHT22;4238;48.404;9.498;2023-09-30T08:00:02;15.10;99.90
8402;DHT22;4238;48.404;9.498;2023-09-30T08:02:34;15.20;99.90
8402;DHT22;4238;48.404;9.498;2023-09-30T08:05:02;15.40;99.90
8402;DHT22;4238;48.404;9.498;2023-09-30T08:07:29;15.50;99.90
8402;DHT22;4238;48.404;9.498;2023-09-30T08:09:56;15.50;99.30
8402;DHT22;4238;48.404;9.498;2023-09-30T08:12:24;15.50;94.40
8402;DHT22;4238;48.404;9.498;2023-09-30T08:14:50;15.50;97.80
8402;DHT22;4238;48.404;9.498;2023-09-30T08:17:18;15.50;97.90
8402;DHT22;4238;48.404;9.498;2023-09-30T08:19:46;15.60;95.50
8402;DHT22;4238;48.404;9.498;2023-09-30T08:22:13;15.70;95.70
8402;DHT22;4238;48.404;9.498;2023-09-30T08:24:40;15.80;93.40
8402;DHT22;4238;48.404;9.498;2023-09-30T08:27:07;16.00;90.50
8402;DHT22;4238;48.404;9.498;2023-09-30T08:29:34;16.00;82.50
8402;DHT22;4238;48.404;9.498;2023-09-30T08:32:02;16.20;77.40
8402;DHT22;4238;48.404;9.498;2023-09-30T08:34:29;16.30;69.30
8402;DHT22;4238;48.404;9.498;2023-09-30T08:36:57;16.50;57.90
8402;DHT22;4238;48.404;9.498;2023-09-30T08:39:24;16.60;52.50
8402;DHT22;4238;48.404;9.498;2023-09-30T08:41:52;16.70;54.60
8402;DHT22;4238;48.404;9.498;2023-09-30T08:44:19;16.80;44.00
8402;DHT22;4238;48.404;9.498;2023-09-30T08:46:46;17.00;41.00
8402;DHT22;4238;48.404;9.498;2023-09-30T08:49:14;17.30;26.30
8402;DHT22;4238;48.404;9.498;2023-09-30T08:51:42;17.40;13.30
8402;DHT22;4238;48.404;9.498;2023-09-30T08:54:11;17.70;6.20
8402;DHT22;4238;48.404;9.498;2023-09-30T08:56:41;17.90;1.00
8402;DHT22;4238;48.404;9.498;2023-09-30T08:59:11;18.20;1.00
8402;DHT22;4238;48.404;9.498;2023-09-30T09:01:38;18.50;1.00
8402;DHT22;4238;48.404;9.498;2023-09-30T09:04:07;18.80;1.00
8402;DHT22;4238;48.404;9.498;2023-09-30T09:06:34;19.00;1.00
8402;DHT22;4238;48.404;9.498;2023-09-30T09:09:14;18.90;1.00
8402;DHT22;4238;48.404;9.498;2023-09-30T09:11:42;18.90;1.00
8402;DHT22;4238;48.404;9.498;2023-09-30T09:14:09;19.10;1.00
8402;DHT22;4238;48.404;9.498;2023-09-30T09:16:36;19.20;1.00
8402;DHT22;4238;48.404;9.498;2023-09-30T09:19:13;19.40;1.00
8402;DHT22;4238;48.404;9.498;2023-09-30T09:21:53;19.60;99.90
8402;DHT22;4238;48.404;9.498;2023-09-30T09:24:29;19.80;99.90
8402;DHT22;4238;48.404;9.498;2023-09-30T09:27:06;19.90;99.90
8402;DHT22;4238;48.404;9.498;2023-09-30T09:29:34;20.10;1.00
8402;DHT22;4238;48.404;9.498;2023-09-30T09:32:12;20.00;1.00
8402;DHT22;4238;48.404;9.498;2023-09-30T09:34:40;19.70;99.80
8402;DHT22;4238;48.404;9.498;2023-09-30T09:37:14;19.60;99.90
8402;DHT22;4238;48.404;9.498;2023-09-30T09:39:50;19.90;1.00
8402;DHT22;4238;48.404;9.498;2023-09-30T09:42:25;20.30;1.00
8402;DHT22;4238;48.404;9.498;2023-09-30T09:44:54;20.40;1.00
8402;DHT22;4238;48.404;9.498;2023-09-30T09:47:22;20.60;1.00
8402;DHT22;4238;48.404;9.498;2023-09-30T09:49:50;21.00;99.90
8402;DHT22;4238;48.404;9.498;2023-09-30T09:52:19;21.30;1.00
8402;DHT22;4238;48.404;9.498;2023-09-30T09:54:46;21.40;99.90
8402;DHT22;4238;48.404;9.498;2023-09-30T09:57:16;21.60;99.90
8402;DHT22;4238;48.404;9.498;2023-09-30T09:59:45;21.70;99.90
8402;DHT22;4238;48.404;9.498;2023-09-30T10:02:14;21.80;99.90
8402;DHT22;4238;48.404;9.498;2023-09-30T10:04:41;21.80;99.90
8402;DHT22;4238;48.404;9.498;2023-09-30T10:07:12;22.10;99.90
8402;DHT22;4238;48.404;9.498;2023-09-30T10:09:45;22.10;1.00
8402;DHT22;4238;48.404;9.498;2023-09-30T10:12:15;22.20;99.90
8402;DHT22;4238;48.404;9.498;2023-09-30T10:14:42;22.00;99.90
8402;DHT22;4238;48.404;9.498;2023-09-30T10:17:10;22.20;1.00
8402;DHT22;4238;48.404;9.498;2023-09-30T10:20:03;22.30;1.00
8402;DHT22;4238;48.404;9.498;2023-09-30T10:22:30;22.10;1.00
8402;DHT22;4238;48.404;9.498;2023-09-30T10:24:58;21.80;99.90
8402;DHT22;4238;48.404;9.498;2023-09-30T10:27:45;21.40;1.00
8402;DHT22;4238;48.404;9.498;2023-09-30T10:30:13;21.30;1.00
8402;DHT22;4238;48.404;9.498;2023-09-30T10:33:08;20.90;1.00
8402;DHT22;4238;48.404;9.498;2023-09-30T10:35:46;20.70;1.00
8402;DHT22;4238;48.404;9.498;2023-09-30T10:38:38;20.70;99.90
8402;DHT22;4238;48.404;9.498;2023-09-30T10:41:09;20.70;1.00
8402;DHT22;4238;48.404;9.498;2023-09-30T10:43:40;21.10;1.00
8402;DHT22;4238;48.404;9.498;2023-09-30T10:46:32;21.40;99.90
8402;DHT22;4238;48.404;9.498;2023-09-30T10:49:17;21.70;99.90
8402;DHT22;4238;48.404;9.498;2023-09-30T10:51:44;22.30;99.90
8402;DHT22;4238;48.404;9.498;2023-09-30T10:54:12;22.60;52.60
8402;DHT22;4238;48.404;9.498;2023-09-30T10:56:39;21.90;1.00
8402;DHT22;4238;48.404;9.498;2023-09-30T10:59:08;21.50;19.60
8402;DHT22;4238;48.404;9.498;2023-09-30T11:01:35;22.00;99.90
8402;DHT22;4238;48.404;9.498;2023-09-30T11:04:03;22.20;1.00
8402;DHT22;4238;48.404;9.498;2023-09-30T11:06:31;22.40;1.00
8402;DHT22;4238;48.404;9.498;2023-09-30T11:09:00;22.50;1.00
8402;DHT22;4238;48.404;9.498;2023-09-30T11:11:35;22.30;1.00
8402;DHT22;4238;48.404;9.498;2023-09-30T11:14:03;21.70;1.00
8402;DHT22;4238;48.404;9.498;2023-09-30T11:16:42;21.20;1.00
8402;DHT22;4238;48.404;9.498;2023-09-30T11:19:09;20.90;2.30
8402;DHT22;4238;48.404;9.498;2023-09-30T11:21:37;20.40;17.20
8402;DHT22;4238;48.404;9.498;2023-09-30T11:24:05;20.10;99.90
8402;DHT22;4238;48.404;9.498;2023-09-30T11:26:33;19.90;99.90
8402;DHT22;4238;48.404;9.498;2023-09-30T11:29:05;19.60;1.00
8402;DHT22;4238;48.404;9.498;2023-09-30T11:31:32;19.50;1.00
8402;DHT22;4238;48.404;9.498;2023-09-30T11:34:01;19.50;7.70
8402;DHT22;4238;48.404;9.498;2023-09-30T11:36:30;19.80;1.00
8402;DHT22;4238;48.404;9.498;2023-09-30T11:38:59;20.40;99.90
8402;DHT22;4238;48.404;9.498;2023-09-30T11:41:33;20.60;99.90
8402;DHT22;4238;48.404;9.498;2023-09-30T11:44:01;20.90;90.20
8402;DHT22;4238;48.404;9.498;2023-09-30T11:46:30;21.30;1.00
8402;DHT22;4238;48.404;9.498;2023-09-30T11:49:02;21.50;1.00
8402;DHT22;4238;48.404;9.498;2023-09-30T11:51:34;22.00;1.00
8402;DHT22;4238;48.404;9.498;2023-09-30T11:54:08;22.30;99.90
8402;DHT22;4238;48.404;9.498;2023-09-30T11:56:36;22.20;1.00
8402;DHT22;4238;48.404;9.498;2023-09-30T11:59:03;21.80;1.00
8402;DHT22;4238;48.404;9.498;2023-09-30T12:01:30;21.40;1.00
8402;DHT22;4238;48.404;9.498;2023-09-30T12:03:58;21.00;1.00
8402;DHT22;4238;48.404;9.498;2023-09-30T12:06:26;20.80;1.00
8402;DHT22;4238;48.404;9.498;2023-09-30T12:08:53;20.70;1.00
8402;DHT22;4238;48.404;9.498;2023-09-30T12:11:20;20.70;1.00
8402;DHT22;4238;48.404;9.498;2023-09-30T12:13:49;20.50;11.50
8402;DHT22;4238;48.404;9.498;2023-09-30T12:16:17;20.50;1.00
8402;DHT22;4238;48.404;9.498;2023-09-30T12:18:44;20.30;48.30
8402;DHT22;4238;48.404;9.498;2023-09-30T12:21:12;20.20;79.50
8402;DHT22;4238;48.404;9.498;2023-09-30T12:23:41;20.20;91.00
8402;DHT22;4238;48.404;9.498;2023-09-30T12:26:08;20.30;1.00
8402;DHT22;4238;48.404;9.498;2023-09-30T12:28:37;20.30;1.00
8402;DHT22;4238;48.404;9.498;2023-09-30T12:31:06;20.20;1.00
8402;DHT22;4238;48.404;9.498;2023-09-30T12:33:33;20.10;1.00
8402;DHT22;4238;48.404;9.498;2023-09-30T12:35:59;20.60;34.00
8402;DHT22;4238;48.404;9.498;2023-09-30T12:38:26;21.10;9.80
8402;DHT22;4238;48.404;9.498;2023-09-30T12:40:55;21.50;1.00
8402;DHT22;4238;48.404;9.498;2023-09-30T12:43:22;21.80;1.00
8402;DHT22;4238;48.404;9.498;2023-09-30T12:45:49;21.80;1.00
8402;DHT22;4238;48.404;9.498;2023-09-30T12:48:16;21.60;1.00
8402;DHT22;4238;48.404;9.498;2023-09-30T12:50:43;21.20;1.00
8402;DHT22;4238;48.404;9.498;2023-09-30T12:53:10;20.70;1.00
8402;DHT22;4238;48.404;9.498;2023-09-30T12:55:36;20.40;1.00
8402;DHT22;4238;48.404;9.498;2023-09-30T12:58:05;20.30;56.30
8402;DHT22;4238;48.404;9.498;2023-09-30T13:00:32;20.20;74.70
8402;DHT22;4238;48.404;9.498;2023-09-30T13:02:59;20.20;1.00
8402;DHT22;4238;48.404;9.498;2023-09-30T13:05:26;20.20;91.00
8402;DHT22;4238;48.404;9.498;2023-09-30T13:07:54;20.40;1.00
8402;DHT22;4238;48.404;9.498;2023-09-30T13:10:21;20.50;1.00
8402;DHT22;4238;48.404;9.498;2023-09-30T13:12:48;20.70;1.00
8402;DHT22;4238;48.404;9.498;2023-09-30T13:15:17;20.60;1.00
8402;DHT22;4238;48.404;9.498;2023-09-30T13:17:44;20.60;1.00
8402;DHT22;4238;48.404;9.498;2023-09-30T13:20:11;20.80;1.00
8402;DHT22;4238;48.404;9.498;2023-09-30T13:22:38;20.90;1.00
8402;DHT22;4238;48.404;9.498;2023-09-30T13:25:06;21.10;1.00
8402;DHT22;4238;48.404;9.498;2023-09-30T13:27:33;21.20;1.00
8402;DHT22;4238;48.404;9.498;2023-09-30T13:30:00;21.10;1.00
8402;DHT22;4238;48.404;9.498;2023-09-30T13:32:28;21.00;1.00
8402;DHT22;4238;48.404;9.498;2023-09-30T13:34:56;20.90;1.00
8402;DHT22;4238;48.404;9.498;2023-09-30T13:37:23;20.80;1.00
8402;DHT22;4238;48.404;9.498;2023-09-30T13:39:55;20.60;1.00
8402;DHT22;4238;48.404;9.498;2023-09-30T13:42:22;20.60;1.00
8402;DHT22;4238;48.404;9.498;2023-09-30T13:44:49;20.80;1.00
8402;DHT22;4238;48.404;9.498;2023-09-30T13:47:15;20.80;1.00
8402;DHT22;4238;48.404;9.498;2023-09-30T13:49:44;20.70;1.00
8402;DHT22;4238;48.404;9.498;2023-09-30T13:52:11;20.50;99.90
8402;DHT22;4238;48.404;9.498;2023-09-30T13:54:38;20.60;1.00
8402;DHT22;4238;48.404;9.498;2023-09-30T13:57:05;20.80;1.00
8402;DHT22;4238;48.404;9.498;2023-09-30T13:59:34;20.60;1.00
8402;DHT22;4238;48.404;9.498;2023-09-30T14:02:01;20.60;99.90
8402;DHT22;4238;48.404;9.498;2023-09-30T14:04:29;20.90;1.00
8402;DHT22;4238;48.404;9.498;2023-09-30T14:06:58;21.00;1.00
8402;DHT22;4238;48.404;9.498;2023-09-30T14:09:27;21.10;99.90
8402;DHT22;4238;48.404;9.498;2023-09-30T14:11:54;21.10;99.90
8402;DHT22;4238;48.404;9.498;2023-09-30T14:14:21;21.20;99.90
8402;DHT22;4238;48.404;9.498;2023-09-30T14:16:48;21.40;99.90
8402;DHT22;4238;48.404;9.498;2023-09-30T14:19:15;21.40;99.90
8402;DHT22;4238;48.404;9.498;2023-09-30T14:21:41;21.00;99.90
8402;DHT22;4238;48.404;9.498;2023-09-30T14:24:10;21.00;99.90
8402;DHT22;4238;48.404;9.498;2023-09-30T14:26:37;20.70;99.90
8402;DHT22;4238;48.404;9.498;2023-09-30T14:29:04;20.60;99.90
8402;DHT22;4238;48.404;9.498;2023-09-30T14:31:31;20.50;99.90
8402;DHT22;4238;48.404;9.498;2023-09-30T14:33:58;20.40;99.90
8402;DHT22;4238;48.404;9.498;2023-09-30T14:36:25;20.30;99.90
8402;DHT22;4238;48.404;9.498;2023-09-30T14:38:52;20.10;99.90
8402;DHT22;4238;48.404;9.498;2023-09-30T14:41:21;19.80;99.90
8402;DHT22;4238;48.404;9.498;2023-09-30T14:43:47;19.80;1.00
8402;DHT22;4238;48.404;9.498;2023-09-30T14:46:14;19.90;1.00
8402;DHT22;4238;48.404;9.498;2023-09-30T14:48:41;20.00;1.00
8402;DHT22;4238;48.404;9.498;2023-09-30T14:51:09;20.20;99.90
8402;DHT22;4238;48.404;9.498;2023-09-30T14:53:36;20.20;1.00
8402;DHT22;4238;48.404;9.498;2023-09-30T14:56:03;20.10;1.00
8402;DHT22;4238;48.404;9.498;2023-09-30T14:58:32;19.90;1.00
8402;DHT22;4238;48.404;9.498;2023-09-30T15:00:59;19.70;1.00
8402;DHT22;4238;48.404;9.498;2023-09-30T15:03:26;19.70;99.90
8402;DHT22;4238;48.404;9.498;2023-09-30T15:05:58;19.60;99.90
8402;DHT22;4238;48.404;9.498;2023-09-30T15:08:27;19.40;99.90
8402;DHT22;4238;48.404;9.498;2023-09-30T15:10:54;19.30;99.90
8402;DHT22;4238;48.404;9.498;2023-09-30T15:13:21;19.30;99.90
8402;DHT22;4238;48.404;9.498;2023-09-30T15:15:49;19.30;99.90
8402;DHT22;4238;48.404;9.498;2023-09-30T15:18:16;19.40;16.70
8402;DHT22;4238;48.404;9.498;2023-09-30T15:20:43;19.10;1.00
8402;DHT22;4238;48.404;9.498;2023-09-30T15:23:10;18.90;1.00
8402;DHT22;4238;48.404;9.498;2023-09-30T15:25:40;19.00;99.90
8402;DHT22;4238;48.404;9.498;2023-09-30T15:28:08;19.10;73.50
8402;DHT22;4238;48.404;9.498;2023-09-30T15:30:35;19.10;99.90
8402;DHT22;4238;48.404;9.498;2023-09-30T15:33:03;19.10;99.90
8402;DHT22;4238;48.404;9.498;2023-09-30T15:35:30;19.10;99.90
8402;DHT22;4238;48.404;9.498;2023-09-30T15:37:57;19.10;99.90
8402;DHT22;4238;48.404;9.498;2023-09-30T15:40:25;18.90;99.90
8402;DHT22;4238;48.404;9.498;2023-09-30T15:42:52;18.80;1.00
8402;DHT22;4238;48.404;9.498;2023-09-30T15:45:19;18.80;1.00
8402;DHT22;4238;48.404;9.498;2023-09-30T15:47:45;18.70;1.00
8402;DHT22;4238;48.404;9.498;2023-09-30T15:50:14;18.70;99.90
8402;DHT22;4238;48.404;9.498;2023-09-30T15:52:41;18.70;99.90
8402;DHT22;4238;48.404;9.498;2023-09-30T15:55:10;18.60;1.00
8402;DHT22;4238;48.404;9.498;2023-09-30T15:57:37;18.30;1.00
8402;DHT22;4238;48.404;9.498;2023-09-30T16:00:09;18.40;99.90
8402;DHT22;4238;48.404;9.498;2023-09-30T16:02:36;18.40;1.00
8402;DHT22;4238;48.404;9.498;2023-09-30T16:05:04;18.30;10.50
8402;DHT22;4238;48.404;9.498;2023-09-30T16:07:33;18.30;1.00
8402;DHT22;4238;48.404;9.498;2023-09-30T16:09:59;18.30;99.90
8402;DHT22;4238;48.404;9.498;2023-09-30T16:12:26;18.30;1.00
8402;DHT22;4238;48.404;9.498;2023-09-30T16:14:53;18.20;1.00
8402;DHT22;4238;48.404;9.498;2023-09-30T16:17:20;18.10;99.90
8402;DHT22;4238;48.404;9.498;2023-09-30T16:19:47;18.10;56.90
8402;DHT22;4238;48.404;9.498;2023-09-30T16:22:13;18.00;1.00
8402;DHT22;4238;48.404;9.498;2023-09-30T16:24:42;17.90;1.00
8402;DHT22;4238;48.404;9.498;2023-09-30T16:27:08;17.80;1.00
8402;DHT22;4238;48.404;9.498;2023-09-30T16:29:35;17.70;99.90
8402;DHT22;4238;48.404;9.498;2023-09-30T16:32:03;17.60;1.00
8402;DHT22;4238;48.404;9.498;2023-09-30T16:34:30;17.60;99.90
8402;DHT22;4238;48.404;9.498;2023-09-30T16:36:57;17.50;20.30
8402;DHT22;4238;48.404;9.498;2023-09-30T16:39:25;17.30;99.90
8402;DHT22;4238;48.404;9.498;2023-09-30T16:41:53;17.10;7.00
8402;DHT22;4238;48.404;9.498;2023-09-30T16:44:20;17.10;1.00
8402;DHT22;4238;48.404;9.498;2023-09-30T16:46:48;17.30;1.00
8402;DHT22;4238;48.404;9.498;2023-09-30T16:49:15;17.40;99.90
8402;DHT22;4238;48.404;9.498;2023-09-30T16:51:42;17.40;99.90
8402;DHT22;4238;48.404;9.498;2023-09-30T16:54:09;16.90;99.90
8402;DHT22;4238;48.404;9.498;2023-09-30T16:56:36;16.50;1.00
8402;DHT22;4238;48.404;9.498;2023-09-30T16:59:05;16.20;1.00
8402;DHT22;4238;48.404;9.498;2023-09-30T17:01:32;15.90;1.00
8402;DHT22;4238;48.404;9.498;2023-09-30T17:03:59;15.70;1.00
8402;DHT22;4238;48.404;9.498;2023-09-30T17:06:26;15.50;1.00
8402;DHT22;4238;48.404;9.498;2023-09-30T17:08:53;15.30;1.00
8402;DHT22;4238;48.404;9.498;2023-09-30T17:11:20;15.20;1.00
8402;DHT22;4238;48.404;9.498;2023-09-30T17:13:47;15.10;1.00
8402;DHT22;4238;48.404;9.498;2023-09-30T17:16:18;14.90;1.00
8402;DHT22;4238;48.404;9.498;2023-09-30T17:18:46;14.80;1.00
8402;DHT22;4238;48.404;9.498;2023-09-30T17:21:13;14.60;1.00
8402;DHT22;4238;48.404;9.498;2023-09-30T17:23:40;14.60;1.00
8402;DHT22;4238;48.404;9.498;2023-09-30T17:26:07;14.60;1.00
8402;DHT22;4238;48.404;9.498;2023-09-30T17:28:34;14.60;1.00
8402;DHT22;4238;48.404;9.498;2023-09-30T17:31:01;14.30;1.00
8402;DHT22;4238;48.404;9.498;2023-09-30T17:33:31;14.20;1.00
8402;DHT22;4238;48.404;9.498;2023-09-30T17:36:01;14.20;2.30
8402;DHT22;4238;48.404;9.498;2023-09-30T17:38:28;14.20;7.00
8402;DHT22;4238;48.404;9.498;2023-09-30T17:40:59;14.10;16.70
8402;DHT22;4238;48.404;9.498;2023-09-30T17:43:26;14.00;19.20
8402;DHT22;4238;48.404;9.498;2023-09-30T17:45:53;13.80;25.80
8402;DHT22;4238;48.404;9.498;2023-09-30T17:48:20;13.80;29.30
8402;DHT22;4238;48.404;9.498;2023-09-30T17:50:49;13.80;26.60
8402;DHT22;4238;48.404;9.498;2023-09-30T17:53:16;13.70;30.00
8402;DHT22;4238;48.404;9.498;2023-09-30T17:55:43;13.70;35.10
8402;DHT22;4238;48.404;9.498;2023-09-30T17:58:10;13.70;37.80
8402;DHT22;4238;48.404;9.498;2023-09-30T18:00:37;13.60;40.20
8402;DHT22;4238;48.404;9.498;2023-09-30T18:03:04;13.60;41.20
8402;DHT22;4238;48.404;9.498;2023-09-30T18:05:31;13.50;45.30
8402;DHT22;4238;48.404;9.498;2023-09-30T18:07:59;13.40;49.30
8402;DHT22;4238;48.404;9.498;2023-09-30T18:10:26;13.40;51.20
8402;DHT22;4238;48.404;9.498;2023-09-30T18:12:53;13.40;50.80
8402;DHT22;4238;48.404;9.498;2023-09-30T18:15:20;13.30;55.70
8402;DHT22;4238;48.404;9.498;2023-09-30T18:17:48;13.30;58.50
8402;DHT22;4238;48.404;9.498;2023-09-30T18:20:15;13.30;59.30
8402;DHT22;4238;48.404;9.498;2023-09-30T18:22:42;13.30;58.70
8402;DHT22;4238;48.404;9.498;2023-09-30T18:25:11;13.20;65.50
8402;DHT22;4238;48.404;9.498;2023-09-30T18:27:40;13.00;67.50
8402;DHT22;4238;48.404;9.498;2023-09-30T18:30:09;12.90;71.20
8402;DHT22;4238;48.404;9.498;2023-09-30T18:32:36;12.90;74.60
8402;DHT22;4238;48.404;9.498;2023-09-30T18:35:04;12.80;72.90
8402;DHT22;4238;48.404;9.498;2023-09-30T18:37:32;12.80;73.70
8402;DHT22;4238;48.404;9.498;2023-09-30T18:39:59;12.70;75.00
8402;DHT22;4238;48.404;9.498;2023-09-30T18:42:27;12.60;77.20
8402;DHT22;4238;48.404;9.498;2023-09-30T18:44:55;12.50;77.40
8402;DHT22;4238;48.404;9.498;2023-09-30T18:47:22;12.40;76.50
8402;DHT22;4238;48.404;9.498;2023-09-30T18:49:49;12.40;80.20
8402;DHT22;4238;48.404;9.498;2023-09-30T18:52:16;12.30;82.70
8402;DHT22;4238;48.404;9.498;2023-09-30T18:54:42;12.30;88.30
8402;DHT22;4238;48.404;9.498;2023-09-30T18:57:09;12.20;89.10
8402;DHT22;4238;48.404;9.498;2023-09-30T18:59:39;12.20;91.50
8402;DHT22;4238;48.404;9.498;2023-09-30T19:02:06;12.20;92.40
8402;DHT22;4238;48.404;9.498;2023-09-30T19:04:33;12.10;93.10
8402;DHT22;4238;48.404;9.498;2023-09-30T19:06:59;12.00;93.00
8402;DHT22;4238;48.404;9.498;2023-09-30T19:09:26;12.00;91.40
8402;DHT22;4238;48.404;9.498;2023-09-30T19:11:53;11.90;90.90
8402;DHT22;4238;48.404;9.498;2023-09-30T19:14:20;11.90;93.60
8402;DHT22;4238;48.404;9.498;2023-09-30T19:16:50;11.80;92.50
8402;DHT22;4238;48.404;9.498;2023-09-30T19:19:17;11.80;99.10
8402;DHT22;4238;48.404;9.498;2023-09-30T19:21:44;11.70;97.30
8402;DHT22;4238;48.404;9.498;2023-09-30T19:24:11;11.70;95.90
8402;DHT22;4238;48.404;9.498;2023-09-30T19:26:38;11.70;97.10
8402;DHT22;4238;48.404;9.498;2023-09-30T19:29:05;11.60;97.70
8402;DHT22;4238;48.404;9.498;2023-09-30T19:31:32;11.60;97.30
8402;DHT22;4238;48.404;9.498;2023-09-30T19:34:00;11.50;95.90
8402;DHT22;4238;48.404;9.498;2023-09-30T19:36:27;11.40;96.50
8402;DHT22;4238;48.404;9.498;2023-09-30T19:38:54;11.40;97.90
8402;DHT22;4238;48.404;9.498;2023-09-30T19:41:21;11.40;97.50
8402;DHT22;4238;48.404;9.498;2023-09-30T19:43:48;11.30;97.50
8402;DHT22;4238;48.404;9.498;2023-09-30T19:46:15;11.30;99.60
8402;DHT22;4238;48.404;9.498;2023-09-30T19:48:42;11.20;99.90
8402;DHT22;4238;48.404;9.498;2023-09-30T19:51:10;11.20;99.90
8402;DHT22;4238;48.404;9.498;2023-09-30T19:53:40;11.20;99.90
8402;DHT22;4238;48.404;9.498;2023-09-30T19:56:07;11.20;99.90
8402;DHT22;4238;48.404;9.498;2023-09-30T19:58:34;11.20;96.30
8402;DHT22;4238;48.404;9.498;2023-09-30T20:01:06;11.10;98.00
8402;DHT22;4238;48.404;9.498;2023-09-30T20:03:33;11.00;99.60
8402;DHT22;4238;48.404;9.498;2023-09-30T20:06:01;11.00;99.90
8402;DHT22;4238;48.404;9.498;2023-09-30T20:08:29;11.00;99.90
8402;DHT22;4238;48.404;9.498;2023-09-30T20:10:56;11.00;99.90
8402;DHT22;4238;48.404;9.498;2023-09-30T20:13:23;11.00;99.90